Portada
METAR-TAF:

METAR-TAF

Aeroports :

Aeroport de Gran Canària

Gran Canària, Espanya

latitud: 27-56N, longitud: 015-23W, altitud: 23 m

Observació

L'informe es va fer fa 28 minuts, a les 05:00 UTC
Vent 7 kt del Nord/Nord-Oest
Temperatura 22°C
Humitat 69%
Pressió 1015 hPa
Visibilitat 10 km o més
Escasses núvols a una alçada de 2000 ft

METAR: GCLP 210500Z 34007KT 9999 FEW020 22/16 Q1015 NOSIG

Hora: 06:28 (05:28 UTC)

Pronòstic

L'informe es va fer fa 3 hores i 28 minuts, a les 02:00 UTC
Pronòstic vàlid del 21 a les 03 UTC al 22 a les 03 UTC
Vent 9 kt del Nord
Visibilitat 10 km o més
Escasses núvols a una alçada de 2000 ft

TAF: GCLP 210200Z 2103/2203 36009KT 9999 FEW020 TX27/2113Z TN21/2105Z

Observacions i pronòstics meteorològics de més de 4000 aeroports (METAR i TAF).

Les estacions disponibles són els punts grocs i vermells al mapa.

Posi el ratolí al punt desitjat per veure el nom de l'estació.

Feu clic per veure les observacions i els pronòstics meteorològics.

Per canviar el mapa: feu clic els botons verds amb una creu de color negre per apropar; al botó verd amb un guió per allunyar la imatge; o en les fletxes verdes per a mapes adjacents.


METAR-TAF: